Hlavní strana
METAR-TAF:

METAR-TAF

Letiště :

Ibagué, Kolumbie

zeměpisná šířka: 04-26N, zeměpisná délka: 075-09W, výška: 928 m

Aktuální stav počasí

Zpráva byla vytvořena před 40 minutami, v 11:00 UTC
Bezvětří
Teplota 20°C
Vlhkost vzduchu 94%
Tlak 1018 hPa
Viditelnost 10 km a více
Skoro jasno ve výšce 1500 ft
Oblačno až skoro zataženo ve výšce 10000 ft

METAR: SKIB 241100Z 00000KT 9999 FEW015 BKN100 20/19 A3007

Čas: 06:40 (11:40 UTC)


TAF: chybějící

Stav a předpovědi počasí z více než 4 000 letišť (zprávy METAR a TAF).

Červené a žluté tečky na mapě představují dostupné meteorologické stanice.

Když kurzor umístíte na tečku, zobrazí se název stanice.

Pak kliknutím zobrazíte stav a předpověď počasí.

Chcete-li změnit mapu, kliknutím na zelené tlačítko se znaménkem +mapu přiblížíte, kliknutím na zelené tlačítko se znaménkem – mapu oddálíte a kliknutím na zelené šipky přejdete na sousední mapy.


METAR-TAF: